<?xml version="1.0" encoding="UTF-8" standalone="no" ?>
<gpx xmlns="http://www.topografix.com/GPX/1/1" xmlns:xsi="http://www.w3.org/2001/XMLSchema-instance" xsi:schemaLocation="http://www.topografix.com/GPX/1/1 http://www.topografix.com/GPX/1/1/gpx.xsd" version="1.1" creator="VisuGPX - https://www.visugpx.com">
  <metadata>
    <name>Tracé actuel: 05 JUIN 2020 14:12</name>
    <desc><![CDATA[Char à voile St Brévin]]></desc>
  </metadata>
  <trk>
    <name><![CDATA[Tracé actuel: 05 JUIN 2020 14:12]]></name>
    <trkseg>
      <trkpt lat="47.23218" lon="-2.18036">
        <ele>-3.23</ele>
        <time>2020-06-05T12:12:02Z</time>
      </trkpt>
      <trkpt lat="47.23215" lon="-2.18036">
        <ele>-3.23</ele>
        <time>2020-06-05T12:12:10Z</time>
      </trkpt>
      <trkpt lat="47.232" lon="-2.18102">
        <ele>-3.71</ele>
        <time>2020-06-05T12:23:10Z</time>
      </trkpt>
      <trkpt lat="47.23193" lon="-2.18117">
        <ele>-3.71</ele>
        <time>2020-06-05T12:23:33Z</time>
      </trkpt>
      <trkpt lat="47.23192" lon="-2.18117">
        <ele>-3.71</ele>
        <time>2020-06-05T12:23:49Z</time>
      </trkpt>
      <trkpt lat="47.23188" lon="-2.18113">
        <ele>-2.27</ele>
        <time>2020-06-05T12:24:04Z</time>
      </trkpt>
      <trkpt lat="47.2319" lon="-2.18114">
        <ele>-1.79</ele>
        <time>2020-06-05T12:24:30Z</time>
      </trkpt>
      <trkpt lat="47.23186" lon="-2.18119">
        <ele>-1.79</ele>
        <time>2020-06-05T12:24:43Z</time>
      </trkpt>
      <trkpt lat="47.23172" lon="-2.18132">
        <ele>-1.3</ele>
        <time>2020-06-05T12:24:49Z</time>
      </trkpt>
      <trkpt lat="47.23147" lon="-2.18131">
        <ele>-1.79</ele>
        <time>2020-06-05T12:24:54Z</time>
      </trkpt>
      <trkpt lat="47.23099" lon="-2.18107">
        <ele>-1.79</ele>
        <time>2020-06-05T12:25:00Z</time>
      </trkpt>
      <trkpt lat="47.2307" lon="-2.18089">
        <ele>-1.79</ele>
        <time>2020-06-05T12:25:03Z</time>
      </trkpt>
      <trkpt lat="47.23032" lon="-2.18058">
        <ele>-1.79</ele>
        <time>2020-06-05T12:25:07Z</time>
      </trkpt>
      <trkpt lat="47.23014" lon="-2.18046">
        <ele>-1.79</ele>
        <time>2020-06-05T12:25:09Z</time>
      </trkpt>
      <trkpt lat="47.22921" lon="-2.17951">
        <ele>-1.79</ele>
        <time>2020-06-05T12:25:20Z</time>
      </trkpt>
      <trkpt lat="47.22864" lon="-2.17882">
        <ele>-1.79</ele>
        <time>2020-06-05T12:25:26Z</time>
      </trkpt>
      <trkpt lat="47.2281" lon="-2.17834">
        <ele>-1.79</ele>
        <time>2020-06-05T12:25:31Z</time>
      </trkpt>
      <trkpt lat="47.2269" lon="-2.17736">
        <ele>-1.79</ele>
        <time>2020-06-05T12:25:42Z</time>
      </trkpt>
      <trkpt lat="47.22679" lon="-2.17728">
        <ele>-1.79</ele>
        <time>2020-06-05T12:25:43Z</time>
      </trkpt>
      <trkpt lat="47.22624" lon="-2.17729">
        <ele>-1.79</ele>
        <time>2020-06-05T12:25:48Z</time>
      </trkpt>
      <trkpt lat="47.22587" lon="-2.17686">
        <ele>-2.27</ele>
        <time>2020-06-05T12:25:53Z</time>
      </trkpt>
      <trkpt lat="47.22607" lon="-2.17648">
        <ele>-1.79</ele>
        <time>2020-06-05T12:25:57Z</time>
      </trkpt>
      <trkpt lat="47.22631" lon="-2.17661">
        <ele>-1.3</ele>
        <time>2020-06-05T12:26:00Z</time>
      </trkpt>
      <trkpt lat="47.22707" lon="-2.17725">
        <ele>-1.3</ele>
        <time>2020-06-05T12:26:10Z</time>
      </trkpt>
      <trkpt lat="47.22724" lon="-2.17737">
        <ele>-1.3</ele>
        <time>2020-06-05T12:26:12Z</time>
      </trkpt>
      <trkpt lat="47.22775" lon="-2.17781">
        <ele>-1.3</ele>
        <time>2020-06-05T12:26:18Z</time>
      </trkpt>
      <trkpt lat="47.22873" lon="-2.17864">
        <ele>-1.3</ele>
        <time>2020-06-05T12:26:29Z</time>
      </trkpt>
      <trkpt lat="47.22943" lon="-2.17925">
        <ele>-0.82</ele>
        <time>2020-06-05T12:26:37Z</time>
      </trkpt>
      <trkpt lat="47.2295" lon="-2.17968">
        <ele>-0.82</ele>
        <time>2020-06-05T12:26:42Z</time>
      </trkpt>
      <trkpt lat="47.22914" lon="-2.17948">
        <ele>-1.3</ele>
        <time>2020-06-05T12:26:47Z</time>
      </trkpt>
      <trkpt lat="47.22885" lon="-2.17908">
        <ele>-1.3</ele>
        <time>2020-06-05T12:26:51Z</time>
      </trkpt>
      <trkpt lat="47.22764" lon="-2.17791">
        <ele>-1.3</ele>
        <time>2020-06-05T12:27:03Z</time>
      </trkpt>
      <trkpt lat="47.22611" lon="-2.17661">
        <ele>-0.82</ele>
        <time>2020-06-05T12:27:16Z</time>
      </trkpt>
      <trkpt lat="47.22487" lon="-2.17562">
        <ele>-1.3</ele>
        <time>2020-06-05T12:27:26Z</time>
      </trkpt>
      <trkpt lat="47.22371" lon="-2.17476">
        <ele>-0.82</ele>
        <time>2020-06-05T12:27:35Z</time>
      </trkpt>
      <trkpt lat="47.2223" lon="-2.17375">
        <ele>-0.82</ele>
        <time>2020-06-05T12:27:46Z</time>
      </trkpt>
      <trkpt lat="47.22135" lon="-2.17293">
        <ele>-0.82</ele>
        <time>2020-06-05T12:27:54Z</time>
      </trkpt>
      <trkpt lat="47.22081" lon="-2.17311">
        <ele>-1.3</ele>
        <time>2020-06-05T12:27:59Z</time>
      </trkpt>
      <trkpt lat="47.22075" lon="-2.17358">
        <ele>-1.79</ele>
        <time>2020-06-05T12:28:04Z</time>
      </trkpt>
      <trkpt lat="47.22094" lon="-2.17358">
        <ele>-1.79</ele>
        <time>2020-06-05T12:28:07Z</time>
      </trkpt>
      <trkpt lat="47.22152" lon="-2.17351">
        <ele>-1.3</ele>
        <time>2020-06-05T12:28:13Z</time>
      </trkpt>
      <trkpt lat="47.22228" lon="-2.17383">
        <ele>-0.82</ele>
        <time>2020-06-05T12:28:21Z</time>
      </trkpt>
      <trkpt lat="47.22278" lon="-2.17416">
        <ele>-0.82</ele>
        <time>2020-06-05T12:28:26Z</time>
      </trkpt>
      <trkpt lat="47.22302" lon="-2.17443">
        <ele>-0.82</ele>
        <time>2020-06-05T12:28:29Z</time>
      </trkpt>
      <trkpt lat="47.22337" lon="-2.17458">
        <ele>-0.34</ele>
        <time>2020-06-05T12:28:33Z</time>
      </trkpt>
      <trkpt lat="47.22412" lon="-2.17509">
        <ele>0.14</ele>
        <time>2020-06-05T12:28:42Z</time>
      </trkpt>
      <trkpt lat="47.22538" lon="-2.17591">
        <ele>-0.34</ele>
        <time>2020-06-05T12:28:56Z</time>
      </trkpt>
      <trkpt lat="47.22651" lon="-2.17693">
        <ele>-0.34</ele>
        <time>2020-06-05T12:29:09Z</time>
      </trkpt>
      <trkpt lat="47.22796" lon="-2.17808">
        <ele>-0.34</ele>
        <time>2020-06-05T12:29:25Z</time>
      </trkpt>
      <trkpt lat="47.22895" lon="-2.17881">
        <ele>-0.82</ele>
        <time>2020-06-05T12:29:36Z</time>
      </trkpt>
      <trkpt lat="47.22919" lon="-2.17902">
        <ele>-0.82</ele>
        <time>2020-06-05T12:29:39Z</time>
      </trkpt>
      <trkpt lat="47.22913" lon="-2.17938">
        <ele>-1.3</ele>
        <time>2020-06-05T12:29:44Z</time>
      </trkpt>
      <trkpt lat="47.22887" lon="-2.17914">
        <ele>-1.79</ele>
        <time>2020-06-05T12:29:48Z</time>
      </trkpt>
      <trkpt lat="47.22858" lon="-2.17873">
        <ele>-1.79</ele>
        <time>2020-06-05T12:29:52Z</time>
      </trkpt>
      <trkpt lat="47.22804" lon="-2.17825">
        <ele>-1.79</ele>
        <time>2020-06-05T12:29:57Z</time>
      </trkpt>
      <trkpt lat="47.2267" lon="-2.17709">
        <ele>-1.3</ele>
        <time>2020-06-05T12:30:08Z</time>
      </trkpt>
      <trkpt lat="47.22511" lon="-2.1757">
        <ele>-1.3</ele>
        <time>2020-06-05T12:30:20Z</time>
      </trkpt>
      <trkpt lat="47.22388" lon="-2.17487">
        <ele>-0.82</ele>
        <time>2020-06-05T12:30:29Z</time>
      </trkpt>
      <trkpt lat="47.22259" lon="-2.17403">
        <ele>-0.82</ele>
        <time>2020-06-05T12:30:38Z</time>
      </trkpt>
      <trkpt lat="47.22129" lon="-2.17301">
        <ele>-0.82</ele>
        <time>2020-06-05T12:30:47Z</time>
      </trkpt>
      <trkpt lat="47.22021" lon="-2.17199">
        <ele>-1.3</ele>
        <time>2020-06-05T12:30:55Z</time>
      </trkpt>
      <trkpt lat="47.21978" lon="-2.17165">
        <ele>-1.3</ele>
        <time>2020-06-05T12:30:58Z</time>
      </trkpt>
      <trkpt lat="47.2193" lon="-2.17108">
        <ele>-1.3</ele>
        <time>2020-06-05T12:31:02Z</time>
      </trkpt>
      <trkpt lat="47.21878" lon="-2.17039">
        <ele>-1.3</ele>
        <time>2020-06-05T12:31:07Z</time>
      </trkpt>
      <trkpt lat="47.21853" lon="-2.17037">
        <ele>-1.3</ele>
        <time>2020-06-05T12:31:10Z</time>
      </trkpt>
      <trkpt lat="47.21841" lon="-2.17006">
        <ele>-1.79</ele>
        <time>2020-06-05T12:31:14Z</time>
      </trkpt>
      <trkpt lat="47.21862" lon="-2.1702">
        <ele>-0.82</ele>
        <time>2020-06-05T12:31:19Z</time>
      </trkpt>
      <trkpt lat="47.21936" lon="-2.17091">
        <ele>-0.82</ele>
        <time>2020-06-05T12:31:33Z</time>
      </trkpt>
      <trkpt lat="47.21979" lon="-2.17136">
        <ele>-0.34</ele>
        <time>2020-06-05T12:31:40Z</time>
      </trkpt>
      <trkpt lat="47.22055" lon="-2.17216">
        <ele>-0.82</ele>
        <time>2020-06-05T12:31:53Z</time>
      </trkpt>
      <trkpt lat="47.22141" lon="-2.17297">
        <ele>-0.82</ele>
        <time>2020-06-05T12:32:06Z</time>
      </trkpt>
      <trkpt lat="47.22239" lon="-2.17383">
        <ele>-1.3</ele>
        <time>2020-06-05T12:32:19Z</time>
      </trkpt>
      <trkpt lat="47.2236" lon="-2.1747">
        <ele>-0.82</ele>
        <time>2020-06-05T12:32:32Z</time>
      </trkpt>
      <trkpt lat="47.22467" lon="-2.17546">
        <ele>-0.82</ele>
        <time>2020-06-05T12:32:43Z</time>
      </trkpt>
      <trkpt lat="47.22579" lon="-2.17626">
        <ele>-1.3</ele>
        <time>2020-06-05T12:32:55Z</time>
      </trkpt>
      <trkpt lat="47.22689" lon="-2.17721">
        <ele>-1.3</ele>
        <time>2020-06-05T12:33:07Z</time>
      </trkpt>
      <trkpt lat="47.22812" lon="-2.17823">
        <ele>-1.3</ele>
        <time>2020-06-05T12:33:21Z</time>
      </trkpt>
      <trkpt lat="47.22906" lon="-2.17897">
        <ele>-1.79</ele>
        <time>2020-06-05T12:33:32Z</time>
      </trkpt>
      <trkpt lat="47.22926" lon="-2.1791">
        <ele>-1.79</ele>
        <time>2020-06-05T12:33:35Z</time>
      </trkpt>
      <trkpt lat="47.22939" lon="-2.17919">
        <ele>-1.3</ele>
        <time>2020-06-05T12:33:37Z</time>
      </trkpt>
      <trkpt lat="47.22958" lon="-2.17962">
        <ele>-1.79</ele>
        <time>2020-06-05T12:33:45Z</time>
      </trkpt>
      <trkpt lat="47.22934" lon="-2.17966">
        <ele>-1.79</ele>
        <time>2020-06-05T12:33:53Z</time>
      </trkpt>
      <trkpt lat="47.22914" lon="-2.17935">
        <ele>-2.27</ele>
        <time>2020-06-05T12:33:57Z</time>
      </trkpt>
      <trkpt lat="47.22831" lon="-2.17852">
        <ele>-1.79</ele>
        <time>2020-06-05T12:34:07Z</time>
      </trkpt>
      <trkpt lat="47.22696" lon="-2.17733">
        <ele>-0.82</ele>
        <time>2020-06-05T12:34:18Z</time>
      </trkpt>
      <trkpt lat="47.22536" lon="-2.1759">
        <ele>0.14</ele>
        <time>2020-06-05T12:34:30Z</time>
      </trkpt>
      <trkpt lat="47.22389" lon="-2.17487">
        <ele>0.62</ele>
        <time>2020-06-05T12:34:40Z</time>
      </trkpt>
      <trkpt lat="47.22226" lon="-2.17374">
        <ele>0.62</ele>
        <time>2020-06-05T12:34:51Z</time>
      </trkpt>
      <trkpt lat="47.22072" lon="-2.17234">
        <ele>1.58</ele>
        <time>2020-06-05T12:35:02Z</time>
      </trkpt>
      <trkpt lat="47.21955" lon="-2.17113">
        <ele>1.1</ele>
        <time>2020-06-05T12:35:11Z</time>
      </trkpt>
      <trkpt lat="47.21931" lon="-2.17087">
        <ele>1.58</ele>
        <time>2020-06-05T12:35:13Z</time>
      </trkpt>
      <trkpt lat="47.21869" lon="-2.17081">
        <ele>0.62</ele>
        <time>2020-06-05T12:35:18Z</time>
      </trkpt>
      <trkpt lat="47.21849" lon="-2.17125">
        <ele>-0.34</ele>
        <time>2020-06-05T12:35:23Z</time>
      </trkpt>
      <trkpt lat="47.21875" lon="-2.17144">
        <ele>-0.34</ele>
        <time>2020-06-05T12:35:28Z</time>
      </trkpt>
      <trkpt lat="47.21889" lon="-2.17157">
        <ele>-0.34</ele>
        <time>2020-06-05T12:35:31Z</time>
      </trkpt>
      <trkpt lat="47.21934" lon="-2.17225">
        <ele>-0.82</ele>
        <time>2020-06-05T12:35:44Z</time>
      </trkpt>
      <trkpt lat="47.21987" lon="-2.17289">
        <ele>-0.82</ele>
        <time>2020-06-05T12:36:02Z</time>
      </trkpt>
      <trkpt lat="47.2204" lon="-2.17331">
        <ele>-1.3</ele>
        <time>2020-06-05T12:36:18Z</time>
      </trkpt>
      <trkpt lat="47.22043" lon="-2.17332">
        <ele>-1.3</ele>
        <time>2020-06-05T12:36:19Z</time>
      </trkpt>
      <trkpt lat="47.22063" lon="-2.17332">
        <ele>-1.3</ele>
        <time>2020-06-05T12:36:23Z</time>
      </trkpt>
      <trkpt lat="47.22122" lon="-2.17328">
        <ele>-0.82</ele>
        <time>2020-06-05T12:36:32Z</time>
      </trkpt>
      <trkpt lat="47.22196" lon="-2.17368">
        <ele>-0.34</ele>
        <time>2020-06-05T12:36:41Z</time>
      </trkpt>
      <trkpt lat="47.22301" lon="-2.17426">
        <ele>-0.34</ele>
        <time>2020-06-05T12:36:52Z</time>
      </trkpt>
      <trkpt lat="47.22419" lon="-2.17507">
        <ele>-0.82</ele>
        <time>2020-06-05T12:37:05Z</time>
      </trkpt>
      <trkpt lat="47.22469" lon="-2.17544">
        <ele>-1.3</ele>
        <time>2020-06-05T12:37:11Z</time>
      </trkpt>
      <trkpt lat="47.22501" lon="-2.17576">
        <ele>-1.3</ele>
        <time>2020-06-05T12:37:15Z</time>
      </trkpt>
      <trkpt lat="47.22553" lon="-2.17653">
        <ele>-1.79</ele>
        <time>2020-06-05T12:37:24Z</time>
      </trkpt>
      <trkpt lat="47.22588" lon="-2.17682">
        <ele>-1.79</ele>
        <time>2020-06-05T12:37:29Z</time>
      </trkpt>
      <trkpt lat="47.22705" lon="-2.17733">
        <ele>-0.82</ele>
        <time>2020-06-05T12:37:40Z</time>
      </trkpt>
      <trkpt lat="47.22727" lon="-2.17745">
        <ele>-0.82</ele>
        <time>2020-06-05T12:37:42Z</time>
      </trkpt>
      <trkpt lat="47.22849" lon="-2.17846">
        <ele>-0.82</ele>
        <time>2020-06-05T12:37:56Z</time>
      </trkpt>
      <trkpt lat="47.2297" lon="-2.17952">
        <ele>-0.82</ele>
        <time>2020-06-05T12:38:11Z</time>
      </trkpt>
      <trkpt lat="47.22984" lon="-2.17965">
        <ele>-1.3</ele>
        <time>2020-06-05T12:38:13Z</time>
      </trkpt>
      <trkpt lat="47.22988" lon="-2.18">
        <ele>-1.3</ele>
        <time>2020-06-05T12:38:18Z</time>
      </trkpt>
      <trkpt lat="47.22975" lon="-2.17994">
        <ele>-1.79</ele>
        <time>2020-06-05T12:38:20Z</time>
      </trkpt>
      <trkpt lat="47.22898" lon="-2.17923">
        <ele>-2.27</ele>
        <time>2020-06-05T12:38:29Z</time>
      </trkpt>
      <trkpt lat="47.22824" lon="-2.17833">
        <ele>-2.27</ele>
        <time>2020-06-05T12:38:36Z</time>
      </trkpt>
      <trkpt lat="47.22755" lon="-2.1779">
        <ele>-2.27</ele>
        <time>2020-06-05T12:38:41Z</time>
      </trkpt>
      <trkpt lat="47.22702" lon="-2.17747">
        <ele>-2.27</ele>
        <time>2020-06-05T12:38:45Z</time>
      </trkpt>
      <trkpt lat="47.22539" lon="-2.17595">
        <ele>-1.79</ele>
        <time>2020-06-05T12:38:57Z</time>
      </trkpt>
      <trkpt lat="47.22409" lon="-2.17502">
        <ele>-1.3</ele>
        <time>2020-06-05T12:39:06Z</time>
      </trkpt>
      <trkpt lat="47.2226" lon="-2.17404">
        <ele>-1.3</ele>
        <time>2020-06-05T12:39:16Z</time>
      </trkpt>
      <trkpt lat="47.22117" lon="-2.17282">
        <ele>-1.3</ele>
        <time>2020-06-05T12:39:26Z</time>
      </trkpt>
      <trkpt lat="47.21991" lon="-2.17152">
        <ele>-1.3</ele>
        <time>2020-06-05T12:39:36Z</time>
      </trkpt>
      <trkpt lat="47.21902" lon="-2.17061">
        <ele>-1.3</ele>
        <time>2020-06-05T12:39:44Z</time>
      </trkpt>
      <trkpt lat="47.21855" lon="-2.17071">
        <ele>-1.79</ele>
        <time>2020-06-05T12:39:49Z</time>
      </trkpt>
      <trkpt lat="47.21866" lon="-2.17094">
        <ele>-1.79</ele>
        <time>2020-06-05T12:39:53Z</time>
      </trkpt>
      <trkpt lat="47.21872" lon="-2.17094">
        <ele>-1.79</ele>
        <time>2020-06-05T12:39:54Z</time>
      </trkpt>
      <trkpt lat="47.21897" lon="-2.17091">
        <ele>-1.3</ele>
        <time>2020-06-05T12:39:57Z</time>
      </trkpt>
      <trkpt lat="47.2195" lon="-2.17129">
        <ele>-1.79</ele>
        <time>2020-06-05T12:40:04Z</time>
      </trkpt>
      <trkpt lat="47.21979" lon="-2.17165">
        <ele>-1.79</ele>
        <time>2020-06-05T12:40:09Z</time>
      </trkpt>
      <trkpt lat="47.22067" lon="-2.17245">
        <ele>-1.79</ele>
        <time>2020-06-05T12:40:22Z</time>
      </trkpt>
      <trkpt lat="47.22082" lon="-2.1726">
        <ele>-1.79</ele>
        <time>2020-06-05T12:40:24Z</time>
      </trkpt>
      <trkpt lat="47.22183" lon="-2.17341">
        <ele>-1.3</ele>
        <time>2020-06-05T12:40:37Z</time>
      </trkpt>
      <trkpt lat="47.22308" lon="-2.17434">
        <ele>-1.3</ele>
        <time>2020-06-05T12:40:51Z</time>
      </trkpt>
      <trkpt lat="47.22442" lon="-2.17534">
        <ele>-1.79</ele>
        <time>2020-06-05T12:41:05Z</time>
      </trkpt>
      <trkpt lat="47.22514" lon="-2.17587">
        <ele>-1.79</ele>
        <time>2020-06-05T12:41:13Z</time>
      </trkpt>
      <trkpt lat="47.22617" lon="-2.17673">
        <ele>-1.79</ele>
        <time>2020-06-05T12:41:24Z</time>
      </trkpt>
      <trkpt lat="47.22645" lon="-2.17694">
        <ele>-1.79</ele>
        <time>2020-06-05T12:41:27Z</time>
      </trkpt>
      <trkpt lat="47.22724" lon="-2.17734">
        <ele>-1.3</ele>
        <time>2020-06-05T12:41:35Z</time>
      </trkpt>
      <trkpt lat="47.22797" lon="-2.17813">
        <ele>-1.79</ele>
        <time>2020-06-05T12:41:44Z</time>
      </trkpt>
      <trkpt lat="47.22875" lon="-2.17875">
        <ele>-1.79</ele>
        <time>2020-06-05T12:41:55Z</time>
      </trkpt>
      <trkpt lat="47.22924" lon="-2.17911">
        <ele>-1.79</ele>
        <time>2020-06-05T12:42:08Z</time>
      </trkpt>
      <trkpt lat="47.22941" lon="-2.17927">
        <ele>-0.82</ele>
        <time>2020-06-05T12:42:23Z</time>
      </trkpt>
      <trkpt lat="47.2294" lon="-2.17927">
        <ele>-0.34</ele>
        <time>2020-06-05T12:42:48Z</time>
      </trkpt>
      <trkpt lat="47.22941" lon="-2.17927">
        <ele>-0.82</ele>
        <time>2020-06-05T12:43:18Z</time>
      </trkpt>
      <trkpt lat="47.22944" lon="-2.1793">
        <ele>-1.3</ele>
        <time>2020-06-05T12:43:30Z</time>
      </trkpt>
      <trkpt lat="47.22975" lon="-2.17956">
        <ele>-1.3</ele>
        <time>2020-06-05T12:43:41Z</time>
      </trkpt>
      <trkpt lat="47.23036" lon="-2.18007">
        <ele>-0.82</ele>
        <time>2020-06-05T12:43:55Z</time>
      </trkpt>
      <trkpt lat="47.23071" lon="-2.18026">
        <ele>-1.3</ele>
        <time>2020-06-05T12:44:01Z</time>
      </trkpt>
      <trkpt lat="47.23078" lon="-2.18058">
        <ele>-1.3</ele>
        <time>2020-06-05T12:44:07Z</time>
      </trkpt>
      <trkpt lat="47.23053" lon="-2.18038">
        <ele>-1.79</ele>
        <time>2020-06-05T12:44:12Z</time>
      </trkpt>
      <trkpt lat="47.2303" lon="-2.1802">
        <ele>-1.79</ele>
        <time>2020-06-05T12:44:15Z</time>
      </trkpt>
      <trkpt lat="47.22928" lon="-2.17944">
        <ele>-1.79</ele>
        <time>2020-06-05T12:44:24Z</time>
      </trkpt>
      <trkpt lat="47.2281" lon="-2.17824">
        <ele>-1.79</ele>
        <time>2020-06-05T12:44:33Z</time>
      </trkpt>
      <trkpt lat="47.22738" lon="-2.17774">
        <ele>-2.27</ele>
        <time>2020-06-05T12:44:38Z</time>
      </trkpt>
      <trkpt lat="47.2259" lon="-2.1764">
        <ele>-2.27</ele>
        <time>2020-06-05T12:44:48Z</time>
      </trkpt>
      <trkpt lat="47.22448" lon="-2.17526">
        <ele>-1.79</ele>
        <time>2020-06-05T12:44:57Z</time>
      </trkpt>
      <trkpt lat="47.22259" lon="-2.17398">
        <ele>-2.27</ele>
        <time>2020-06-05T12:45:09Z</time>
      </trkpt>
      <trkpt lat="47.22179" lon="-2.17342">
        <ele>-2.27</ele>
        <time>2020-06-05T12:45:14Z</time>
      </trkpt>
      <trkpt lat="47.22108" lon="-2.17279">
        <ele>-2.27</ele>
        <time>2020-06-05T12:45:19Z</time>
      </trkpt>
      <trkpt lat="47.22054" lon="-2.17246">
        <ele>-2.27</ele>
        <time>2020-06-05T12:45:23Z</time>
      </trkpt>
      <trkpt lat="47.2203" lon="-2.17227">
        <ele>-2.75</ele>
        <time>2020-06-05T12:45:25Z</time>
      </trkpt>
      <trkpt lat="47.21973" lon="-2.17182">
        <ele>-2.75</ele>
        <time>2020-06-05T12:45:30Z</time>
      </trkpt>
      <trkpt lat="47.21906" lon="-2.17085">
        <ele>-2.75</ele>
        <time>2020-06-05T12:45:37Z</time>
      </trkpt>
      <trkpt lat="47.21865" lon="-2.17045">
        <ele>-1.79</ele>
        <time>2020-06-05T12:45:42Z</time>
      </trkpt>
      <trkpt lat="47.21857" lon="-2.17082">
        <ele>-1.79</ele>
        <time>2020-06-05T12:45:47Z</time>
      </trkpt>
      <trkpt lat="47.2189" lon="-2.17081">
        <ele>-1.3</ele>
        <time>2020-06-05T12:45:54Z</time>
      </trkpt>
      <trkpt lat="47.21927" lon="-2.1709">
        <ele>-0.82</ele>
        <time>2020-06-05T12:45:59Z</time>
      </trkpt>
      <trkpt lat="47.21938" lon="-2.171">
        <ele>-0.82</ele>
        <time>2020-06-05T12:46:01Z</time>
      </trkpt>
      <trkpt lat="47.21967" lon="-2.17119">
        <ele>-0.34</ele>
        <time>2020-06-05T12:46:06Z</time>
      </trkpt>
      <trkpt lat="47.21998" lon="-2.17154">
        <ele>-0.34</ele>
        <time>2020-06-05T12:46:12Z</time>
      </trkpt>
      <trkpt lat="47.22096" lon="-2.17254">
        <ele>-0.82</ele>
        <time>2020-06-05T12:46:27Z</time>
      </trkpt>
      <trkpt lat="47.22177" lon="-2.17332">
        <ele>-1.3</ele>
        <time>2020-06-05T12:46:38Z</time>
      </trkpt>
      <trkpt lat="47.22313" lon="-2.17436">
        <ele>-1.3</ele>
        <time>2020-06-05T12:46:54Z</time>
      </trkpt>
      <trkpt lat="47.22446" lon="-2.17526">
        <ele>-1.3</ele>
        <time>2020-06-05T12:47:08Z</time>
      </trkpt>
      <trkpt lat="47.22541" lon="-2.17597">
        <ele>-0.82</ele>
        <time>2020-06-05T12:47:18Z</time>
      </trkpt>
      <trkpt lat="47.22637" lon="-2.17679">
        <ele>-0.82</ele>
        <time>2020-06-05T12:47:29Z</time>
      </trkpt>
      <trkpt lat="47.22679" lon="-2.17718">
        <ele>-0.82</ele>
        <time>2020-06-05T12:47:34Z</time>
      </trkpt>
      <trkpt lat="47.2272" lon="-2.1776">
        <ele>-0.82</ele>
        <time>2020-06-05T12:47:39Z</time>
      </trkpt>
      <trkpt lat="47.22851" lon="-2.1785">
        <ele>-0.82</ele>
        <time>2020-06-05T12:47:52Z</time>
      </trkpt>
      <trkpt lat="47.2287" lon="-2.17867">
        <ele>-0.82</ele>
        <time>2020-06-05T12:47:54Z</time>
      </trkpt>
      <trkpt lat="47.22956" lon="-2.17931">
        <ele>-0.82</ele>
        <time>2020-06-05T12:48:03Z</time>
      </trkpt>
      <trkpt lat="47.22975" lon="-2.17973">
        <ele>-0.82</ele>
        <time>2020-06-05T12:48:08Z</time>
      </trkpt>
      <trkpt lat="47.2294" lon="-2.17964">
        <ele>-1.3</ele>
        <time>2020-06-05T12:48:13Z</time>
      </trkpt>
      <trkpt lat="47.22932" lon="-2.17955">
        <ele>-1.3</ele>
        <time>2020-06-05T12:48:14Z</time>
      </trkpt>
      <trkpt lat="47.22908" lon="-2.17923">
        <ele>-1.3</ele>
        <time>2020-06-05T12:48:17Z</time>
      </trkpt>
      <trkpt lat="47.22809" lon="-2.17835">
        <ele>-0.82</ele>
        <time>2020-06-05T12:48:25Z</time>
      </trkpt>
      <trkpt lat="47.22669" lon="-2.17711">
        <ele>-0.34</ele>
        <time>2020-06-05T12:48:35Z</time>
      </trkpt>
      <trkpt lat="47.22553" lon="-2.17607">
        <ele>-0.34</ele>
        <time>2020-06-05T12:48:43Z</time>
      </trkpt>
      <trkpt lat="47.22456" lon="-2.17549">
        <ele>-0.34</ele>
        <time>2020-06-05T12:48:49Z</time>
      </trkpt>
      <trkpt lat="47.22323" lon="-2.17434">
        <ele>0.14</ele>
        <time>2020-06-05T12:48:58Z</time>
      </trkpt>
      <trkpt lat="47.22247" lon="-2.17389">
        <ele>-0.34</ele>
        <time>2020-06-05T12:49:03Z</time>
      </trkpt>
      <trkpt lat="47.22089" lon="-2.17284">
        <ele>-0.34</ele>
        <time>2020-06-05T12:49:14Z</time>
      </trkpt>
      <trkpt lat="47.22022" lon="-2.17242">
        <ele>-0.82</ele>
        <time>2020-06-05T12:49:19Z</time>
      </trkpt>
      <trkpt lat="47.22008" lon="-2.1719">
        <ele>-0.82</ele>
        <time>2020-06-05T12:49:23Z</time>
      </trkpt>
      <trkpt lat="47.22044" lon="-2.17197">
        <ele>-0.34</ele>
        <time>2020-06-05T12:49:29Z</time>
      </trkpt>
      <trkpt lat="47.22054" lon="-2.17209">
        <ele>-0.34</ele>
        <time>2020-06-05T12:49:31Z</time>
      </trkpt>
      <trkpt lat="47.22082" lon="-2.17236">
        <ele>-0.34</ele>
        <time>2020-06-05T12:49:36Z</time>
      </trkpt>
      <trkpt lat="47.22181" lon="-2.17359">
        <ele>-0.34</ele>
        <time>2020-06-05T12:49:52Z</time>
      </trkpt>
      <trkpt lat="47.22243" lon="-2.17414">
        <ele>-0.34</ele>
        <time>2020-06-05T12:50:00Z</time>
      </trkpt>
      <trkpt lat="47.22358" lon="-2.17482">
        <ele>0.14</ele>
        <time>2020-06-05T12:50:11Z</time>
      </trkpt>
      <trkpt lat="47.22482" lon="-2.17564">
        <ele>0.62</ele>
        <time>2020-06-05T12:50:23Z</time>
      </trkpt>
      <trkpt lat="47.22513" lon="-2.17584">
        <ele>0.62</ele>
        <time>2020-06-05T12:50:26Z</time>
      </trkpt>
      <trkpt lat="47.22625" lon="-2.17678">
        <ele>0.62</ele>
        <time>2020-06-05T12:50:38Z</time>
      </trkpt>
      <trkpt lat="47.22652" lon="-2.17698">
        <ele>0.14</ele>
        <time>2020-06-05T12:50:41Z</time>
      </trkpt>
      <trkpt lat="47.2273" lon="-2.17739">
        <ele>0.62</ele>
        <time>2020-06-05T12:50:48Z</time>
      </trkpt>
      <trkpt lat="47.22753" lon="-2.17771">
        <ele>0.62</ele>
        <time>2020-06-05T12:50:51Z</time>
      </trkpt>
      <trkpt lat="47.22855" lon="-2.17856">
        <ele>0.62</ele>
        <time>2020-06-05T12:51:03Z</time>
      </trkpt>
      <trkpt lat="47.22951" lon="-2.17927">
        <ele>0.62</ele>
        <time>2020-06-05T12:51:13Z</time>
      </trkpt>
      <trkpt lat="47.23008" lon="-2.17973">
        <ele>1.58</ele>
        <time>2020-06-05T12:51:22Z</time>
      </trkpt>
      <trkpt lat="47.2304" lon="-2.18003">
        <ele>1.58</ele>
        <time>2020-06-05T12:51:32Z</time>
      </trkpt>
      <trkpt lat="47.2304" lon="-2.18004">
        <ele>1.1</ele>
        <time>2020-06-05T12:51:50Z</time>
      </trkpt>
      <trkpt lat="47.23041" lon="-2.18019">
        <ele>0.62</ele>
        <time>2020-06-05T12:52:07Z</time>
      </trkpt>
      <trkpt lat="47.23028" lon="-2.18018">
        <ele>0.14</ele>
        <time>2020-06-05T12:52:12Z</time>
      </trkpt>
      <trkpt lat="47.22953" lon="-2.17952">
        <ele>0.14</ele>
        <time>2020-06-05T12:52:23Z</time>
      </trkpt>
      <trkpt lat="47.22845" lon="-2.17868">
        <ele>-0.34</ele>
        <time>2020-06-05T12:52:32Z</time>
      </trkpt>
      <trkpt lat="47.22794" lon="-2.1782">
        <ele>0.14</ele>
        <time>2020-06-05T12:52:36Z</time>
      </trkpt>
      <trkpt lat="47.22639" lon="-2.17698">
        <ele>-0.34</ele>
        <time>2020-06-05T12:52:47Z</time>
      </trkpt>
      <trkpt lat="47.22463" lon="-2.1756">
        <ele>0.62</ele>
        <time>2020-06-05T12:52:59Z</time>
      </trkpt>
      <trkpt lat="47.22332" lon="-2.17463">
        <ele>0.62</ele>
        <time>2020-06-05T12:53:08Z</time>
      </trkpt>
      <trkpt lat="47.22163" lon="-2.17335">
        <ele>0.62</ele>
        <time>2020-06-05T12:53:19Z</time>
      </trkpt>
      <trkpt lat="47.22017" lon="-2.17215">
        <ele>0.14</ele>
        <time>2020-06-05T12:53:29Z</time>
      </trkpt>
      <trkpt lat="47.2199" lon="-2.17193">
        <ele>0.14</ele>
        <time>2020-06-05T12:53:31Z</time>
      </trkpt>
      <trkpt lat="47.21948" lon="-2.17118">
        <ele>0.14</ele>
        <time>2020-06-05T12:53:36Z</time>
      </trkpt>
      <trkpt lat="47.21915" lon="-2.17094">
        <ele>0.14</ele>
        <time>2020-06-05T12:53:40Z</time>
      </trkpt>
      <trkpt lat="47.21928" lon="-2.17086">
        <ele>2.06</ele>
        <time>2020-06-05T12:53:44Z</time>
      </trkpt>
      <trkpt lat="47.21937" lon="-2.17095">
        <ele>2.54</ele>
        <time>2020-06-05T12:53:46Z</time>
      </trkpt>
      <trkpt lat="47.22012" lon="-2.1717">
        <ele>3.02</ele>
        <time>2020-06-05T12:54:01Z</time>
      </trkpt>
      <trkpt lat="47.22104" lon="-2.17264">
        <ele>3.02</ele>
        <time>2020-06-05T12:54:17Z</time>
      </trkpt>
      <trkpt lat="47.22163" lon="-2.17322">
        <ele>2.54</ele>
        <time>2020-06-05T12:54:26Z</time>
      </trkpt>
      <trkpt lat="47.22194" lon="-2.17397">
        <ele>2.06</ele>
        <time>2020-06-05T12:54:37Z</time>
      </trkpt>
      <trkpt lat="47.22209" lon="-2.17438">
        <ele>1.58</ele>
        <time>2020-06-05T12:54:50Z</time>
      </trkpt>
      <trkpt lat="47.22227" lon="-2.17469">
        <ele>1.1</ele>
        <time>2020-06-05T12:55:03Z</time>
      </trkpt>
      <trkpt lat="47.22268" lon="-2.17511">
        <ele>0.62</ele>
        <time>2020-06-05T12:55:16Z</time>
      </trkpt>
      <trkpt lat="47.22344" lon="-2.1756">
        <ele>0.14</ele>
        <time>2020-06-05T12:55:36Z</time>
      </trkpt>
      <trkpt lat="47.224" lon="-2.17594">
        <ele>-0.82</ele>
        <time>2020-06-05T12:55:51Z</time>
      </trkpt>
      <trkpt lat="47.22465" lon="-2.17635">
        <ele>-0.82</ele>
        <time>2020-06-05T12:56:07Z</time>
      </trkpt>
      <trkpt lat="47.22531" lon="-2.17661">
        <ele>-0.34</ele>
        <time>2020-06-05T12:56:19Z</time>
      </trkpt>
      <trkpt lat="47.22581" lon="-2.17702">
        <ele>-0.82</ele>
        <time>2020-06-05T12:56:32Z</time>
      </trkpt>
      <trkpt lat="47.22593" lon="-2.17709">
        <ele>-0.82</ele>
        <time>2020-06-05T12:56:35Z</time>
      </trkpt>
      <trkpt lat="47.22613" lon="-2.17725">
        <ele>-0.82</ele>
        <time>2020-06-05T12:56:40Z</time>
      </trkpt>
      <trkpt lat="47.22622" lon="-2.17735">
        <ele>-0.82</ele>
        <time>2020-06-05T12:56:43Z</time>
      </trkpt>
      <trkpt lat="47.22689" lon="-2.17789">
        <ele>-0.82</ele>
        <time>2020-06-05T12:57:00Z</time>
      </trkpt>
      <trkpt lat="47.22711" lon="-2.17812">
        <ele>-0.82</ele>
        <time>2020-06-05T12:57:06Z</time>
      </trkpt>
      <trkpt lat="47.2278" lon="-2.17869">
        <ele>-1.3</ele>
        <time>2020-06-05T12:57:20Z</time>
      </trkpt>
      <trkpt lat="47.22862" lon="-2.17932">
        <ele>-1.3</ele>
        <time>2020-06-05T12:57:35Z</time>
      </trkpt>
      <trkpt lat="47.2292" lon="-2.17977">
        <ele>-1.3</ele>
        <time>2020-06-05T12:57:45Z</time>
      </trkpt>
      <trkpt lat="47.22949" lon="-2.17959">
        <ele>-0.82</ele>
        <time>2020-06-05T12:57:50Z</time>
      </trkpt>
      <trkpt lat="47.22939" lon="-2.17945">
        <ele>-0.82</ele>
        <time>2020-06-05T12:57:52Z</time>
      </trkpt>
      <trkpt lat="47.22899" lon="-2.17915">
        <ele>-0.82</ele>
        <time>2020-06-05T12:57:57Z</time>
      </trkpt>
      <trkpt lat="47.22837" lon="-2.17879">
        <ele>-0.34</ele>
        <time>2020-06-05T12:58:04Z</time>
      </trkpt>
      <trkpt lat="47.22845" lon="-2.17849">
        <ele>-0.34</ele>
        <time>2020-06-05T12:58:08Z</time>
      </trkpt>
      <trkpt lat="47.22867" lon="-2.17868">
        <ele>0.14</ele>
        <time>2020-06-05T12:58:13Z</time>
      </trkpt>
      <trkpt lat="47.22867" lon="-2.17871">
        <ele>0.62</ele>
        <time>2020-06-05T12:58:26Z</time>
      </trkpt>
      <trkpt lat="47.22867" lon="-2.17871">
        <ele>-0.34</ele>
        <time>2020-06-05T12:58:53Z</time>
      </trkpt>
      <trkpt lat="47.22866" lon="-2.1787">
        <ele>-0.34</ele>
        <time>2020-06-05T12:59:20Z</time>
      </trkpt>
      <trkpt lat="47.22865" lon="-2.17866">
        <ele>-0.34</ele>
        <time>2020-06-05T12:59:46Z</time>
      </trkpt>
      <trkpt lat="47.22868" lon="-2.17869">
        <ele>0.14</ele>
        <time>2020-06-05T12:59:54Z</time>
      </trkpt>
      <trkpt lat="47.22905" lon="-2.17891">
        <ele>0.62</ele>
        <time>2020-06-05T13:00:05Z</time>
      </trkpt>
      <trkpt lat="47.22928" lon="-2.17907">
        <ele>0.14</ele>
        <time>2020-06-05T13:00:09Z</time>
      </trkpt>
      <trkpt lat="47.22927" lon="-2.17936">
        <ele>-0.34</ele>
        <time>2020-06-05T13:00:15Z</time>
      </trkpt>
      <trkpt lat="47.22907" lon="-2.17919">
        <ele>-0.34</ele>
        <time>2020-06-05T13:00:18Z</time>
      </trkpt>
      <trkpt lat="47.22894" lon="-2.179">
        <ele>-0.34</ele>
        <time>2020-06-05T13:00:20Z</time>
      </trkpt>
      <trkpt lat="47.22832" lon="-2.17863">
        <ele>-0.34</ele>
        <time>2020-06-05T13:00:27Z</time>
      </trkpt>
      <trkpt lat="47.22823" lon="-2.17838">
        <ele>-0.34</ele>
        <time>2020-06-05T13:00:30Z</time>
      </trkpt>
      <trkpt lat="47.22835" lon="-2.17838">
        <ele>-0.34</ele>
        <time>2020-06-05T13:00:33Z</time>
      </trkpt>
      <trkpt lat="47.22864" lon="-2.17867">
        <ele>-0.34</ele>
        <time>2020-06-05T13:00:45Z</time>
      </trkpt>
      <trkpt lat="47.22887" lon="-2.17883">
        <ele>-0.34</ele>
        <time>2020-06-05T13:00:57Z</time>
      </trkpt>
      <trkpt lat="47.2295" lon="-2.17931">
        <ele>-0.34</ele>
        <time>2020-06-05T13:01:08Z</time>
      </trkpt>
      <trkpt lat="47.22989" lon="-2.1796">
        <ele>-0.34</ele>
        <time>2020-06-05T13:01:14Z</time>
      </trkpt>
      <trkpt lat="47.22994" lon="-2.17988">
        <ele>-1.3</ele>
        <time>2020-06-05T13:01:19Z</time>
      </trkpt>
      <trkpt lat="47.22976" lon="-2.17977">
        <ele>-1.3</ele>
        <time>2020-06-05T13:01:22Z</time>
      </trkpt>
      <trkpt lat="47.22964" lon="-2.17961">
        <ele>-1.3</ele>
        <time>2020-06-05T13:01:24Z</time>
      </trkpt>
      <trkpt lat="47.22877" lon="-2.17884">
        <ele>-1.3</ele>
        <time>2020-06-05T13:01:33Z</time>
      </trkpt>
      <trkpt lat="47.22752" lon="-2.17796">
        <ele>-1.79</ele>
        <time>2020-06-05T13:01:43Z</time>
      </trkpt>
      <trkpt lat="47.22584" lon="-2.17647">
        <ele>-1.3</ele>
        <time>2020-06-05T13:01:55Z</time>
      </trkpt>
      <trkpt lat="47.22433" lon="-2.17532">
        <ele>-0.82</ele>
        <time>2020-06-05T13:02:05Z</time>
      </trkpt>
      <trkpt lat="47.22299" lon="-2.17432">
        <ele>-0.34</ele>
        <time>2020-06-05T13:02:14Z</time>
      </trkpt>
      <trkpt lat="47.22121" lon="-2.17289">
        <ele>-0.34</ele>
        <time>2020-06-05T13:02:27Z</time>
      </trkpt>
      <trkpt lat="47.21991" lon="-2.17179">
        <ele>-0.34</ele>
        <time>2020-06-05T13:02:37Z</time>
      </trkpt>
      <trkpt lat="47.21937" lon="-2.17116">
        <ele>-0.34</ele>
        <time>2020-06-05T13:02:42Z</time>
      </trkpt>
      <trkpt lat="47.21916" lon="-2.17071">
        <ele>0.14</ele>
        <time>2020-06-05T13:02:46Z</time>
      </trkpt>
      <trkpt lat="47.21927" lon="-2.17079">
        <ele>0.14</ele>
        <time>2020-06-05T13:02:51Z</time>
      </trkpt>
      <trkpt lat="47.21933" lon="-2.17086">
        <ele>0.14</ele>
        <time>2020-06-05T13:02:54Z</time>
      </trkpt>
      <trkpt lat="47.21979" lon="-2.1714">
        <ele>0.62</ele>
        <time>2020-06-05T13:03:06Z</time>
      </trkpt>
      <trkpt lat="47.22002" lon="-2.17162">
        <ele>0.62</ele>
        <time>2020-06-05T13:03:10Z</time>
      </trkpt>
      <trkpt lat="47.2201" lon="-2.17195">
        <ele>0.14</ele>
        <time>2020-06-05T13:03:15Z</time>
      </trkpt>
      <trkpt lat="47.21983" lon="-2.17178">
        <ele>-0.34</ele>
        <time>2020-06-05T13:03:20Z</time>
      </trkpt>
      <trkpt lat="47.21898" lon="-2.17071">
        <ele>0.14</ele>
        <time>2020-06-05T13:03:34Z</time>
      </trkpt>
      <trkpt lat="47.21807" lon="-2.16972">
        <ele>0.62</ele>
        <time>2020-06-05T13:03:47Z</time>
      </trkpt>
      <trkpt lat="47.21792" lon="-2.1696">
        <ele>0.62</ele>
        <time>2020-06-05T13:03:49Z</time>
      </trkpt>
      <trkpt lat="47.2174" lon="-2.16945">
        <ele>0.62</ele>
        <time>2020-06-05T13:03:56Z</time>
      </trkpt>
      <trkpt lat="47.21735" lon="-2.1694">
        <ele>0.62</ele>
        <time>2020-06-05T13:03:57Z</time>
      </trkpt>
      <trkpt lat="47.21636" lon="-2.16857">
        <ele>0.14</ele>
        <time>2020-06-05T13:04:13Z</time>
      </trkpt>
      <trkpt lat="47.21629" lon="-2.1685">
        <ele>0.14</ele>
        <time>2020-06-05T13:04:14Z</time>
      </trkpt>
      <trkpt lat="47.21623" lon="-2.1681">
        <ele>0.14</ele>
        <time>2020-06-05T13:04:19Z</time>
      </trkpt>
      <trkpt lat="47.21635" lon="-2.16814">
        <ele>0.14</ele>
        <time>2020-06-05T13:04:21Z</time>
      </trkpt>
      <trkpt lat="47.217" lon="-2.16871">
        <ele>0.62</ele>
        <time>2020-06-05T13:04:33Z</time>
      </trkpt>
      <trkpt lat="47.21718" lon="-2.16885">
        <ele>0.62</ele>
        <time>2020-06-05T13:04:36Z</time>
      </trkpt>
      <trkpt lat="47.21808" lon="-2.16975">
        <ele>1.1</ele>
        <time>2020-06-05T13:04:51Z</time>
      </trkpt>
      <trkpt lat="47.21837" lon="-2.17009">
        <ele>1.1</ele>
        <time>2020-06-05T13:04:56Z</time>
      </trkpt>
      <trkpt lat="47.21918" lon="-2.1709">
        <ele>1.58</ele>
        <time>2020-06-05T13:05:08Z</time>
      </trkpt>
      <trkpt lat="47.22011" lon="-2.17199">
        <ele>1.58</ele>
        <time>2020-06-05T13:05:24Z</time>
      </trkpt>
      <trkpt lat="47.22113" lon="-2.17307">
        <ele>2.06</ele>
        <time>2020-06-05T13:05:41Z</time>
      </trkpt>
      <trkpt lat="47.22206" lon="-2.17378">
        <ele>2.06</ele>
        <time>2020-06-05T13:05:53Z</time>
      </trkpt>
      <trkpt lat="47.22327" lon="-2.17453">
        <ele>2.06</ele>
        <time>2020-06-05T13:06:05Z</time>
      </trkpt>
      <trkpt lat="47.22449" lon="-2.17544">
        <ele>2.54</ele>
        <time>2020-06-05T13:06:18Z</time>
      </trkpt>
      <trkpt lat="47.22571" lon="-2.17642">
        <ele>2.54</ele>
        <time>2020-06-05T13:06:32Z</time>
      </trkpt>
      <trkpt lat="47.22673" lon="-2.1773">
        <ele>3.02</ele>
        <time>2020-06-05T13:06:43Z</time>
      </trkpt>
      <trkpt lat="47.22802" lon="-2.17821">
        <ele>3.02</ele>
        <time>2020-06-05T13:06:56Z</time>
      </trkpt>
      <trkpt lat="47.22908" lon="-2.179">
        <ele>3.02</ele>
        <time>2020-06-05T13:07:07Z</time>
      </trkpt>
      <trkpt lat="47.22925" lon="-2.17914">
        <ele>3.02</ele>
        <time>2020-06-05T13:07:09Z</time>
      </trkpt>
      <trkpt lat="47.2295" lon="-2.1793">
        <ele>3.5</ele>
        <time>2020-06-05T13:07:12Z</time>
      </trkpt>
      <trkpt lat="47.2301" lon="-2.17986">
        <ele>3.02</ele>
        <time>2020-06-05T13:07:23Z</time>
      </trkpt>
      <trkpt lat="47.23069" lon="-2.18023">
        <ele>2.54</ele>
        <time>2020-06-05T13:07:36Z</time>
      </trkpt>
      <trkpt lat="47.23141" lon="-2.18046">
        <ele>2.06</ele>
        <time>2020-06-05T13:07:51Z</time>
      </trkpt>
      <trkpt lat="47.23179" lon="-2.18058">
        <ele>2.06</ele>
        <time>2020-06-05T13:08:05Z</time>
      </trkpt>
      <trkpt lat="47.23178" lon="-2.18058">
        <ele>1.1</ele>
        <time>2020-06-05T13:08:24Z</time>
      </trkpt>
      <trkpt lat="47.23178" lon="-2.18058">
        <ele>1.1</ele>
        <time>2020-06-05T13:08:55Z</time>
      </trkpt>
      <trkpt lat="47.23178" lon="-2.18058">
        <ele>1.58</ele>
        <time>2020-06-05T13:09:33Z</time>
      </trkpt>
      <trkpt lat="47.23182" lon="-2.18065">
        <ele>1.58</ele>
        <time>2020-06-05T13:09:47Z</time>
      </trkpt>
      <trkpt lat="47.23182" lon="-2.18065">
        <ele>1.58</ele>
        <time>2020-06-05T13:10:10Z</time>
      </trkpt>
      <trkpt lat="47.23182" lon="-2.18066">
        <ele>1.1</ele>
        <time>2020-06-05T13:10:35Z</time>
      </trkpt>
      <trkpt lat="47.23183" lon="-2.18067">
        <ele>1.1</ele>
        <time>2020-06-05T13:10:48Z</time>
      </trkpt>
      <trkpt lat="47.2318" lon="-2.1807">
        <ele>1.1</ele>
        <time>2020-06-05T13:10:56Z</time>
      </trkpt>
      <trkpt lat="47.23157" lon="-2.18075">
        <ele>1.1</ele>
        <time>2020-06-05T13:11:03Z</time>
      </trkpt>
      <trkpt lat="47.23092" lon="-2.18042">
        <ele>0.14</ele>
        <time>2020-06-05T13:11:13Z</time>
      </trkpt>
      <trkpt lat="47.23013" lon="-2.17989">
        <ele>0.14</ele>
        <time>2020-06-05T13:11:21Z</time>
      </trkpt>
      <trkpt lat="47.22934" lon="-2.17941">
        <ele>0.62</ele>
        <time>2020-06-05T13:11:27Z</time>
      </trkpt>
      <trkpt lat="47.228" lon="-2.17818">
        <ele>1.1</ele>
        <time>2020-06-05T13:11:37Z</time>
      </trkpt>
      <trkpt lat="47.22642" lon="-2.17689">
        <ele>0.62</ele>
        <time>2020-06-05T13:11:48Z</time>
      </trkpt>
      <trkpt lat="47.22484" lon="-2.1756">
        <ele>0.62</ele>
        <time>2020-06-05T13:11:59Z</time>
      </trkpt>
      <trkpt lat="47.22329" lon="-2.17455">
        <ele>0.14</ele>
        <time>2020-06-05T13:12:09Z</time>
      </trkpt>
      <trkpt lat="47.22243" lon="-2.17391">
        <ele>0.14</ele>
        <time>2020-06-05T13:12:15Z</time>
      </trkpt>
      <trkpt lat="47.22203" lon="-2.17377">
        <ele>-0.34</ele>
        <time>2020-06-05T13:12:18Z</time>
      </trkpt>
      <trkpt lat="47.22157" lon="-2.1735">
        <ele>-0.34</ele>
        <time>2020-06-05T13:12:22Z</time>
      </trkpt>
      <trkpt lat="47.22148" lon="-2.17288">
        <ele>-0.34</ele>
        <time>2020-06-05T13:12:28Z</time>
      </trkpt>
      <trkpt lat="47.22159" lon="-2.17299">
        <ele>-0.34</ele>
        <time>2020-06-05T13:12:30Z</time>
      </trkpt>
      <trkpt lat="47.22177" lon="-2.17317">
        <ele>-0.34</ele>
        <time>2020-06-05T13:12:33Z</time>
      </trkpt>
      <trkpt lat="47.22211" lon="-2.17359">
        <ele>0.14</ele>
        <time>2020-06-05T13:12:39Z</time>
      </trkpt>
      <trkpt lat="47.22333" lon="-2.17458">
        <ele>1.1</ele>
        <time>2020-06-05T13:12:55Z</time>
      </trkpt>
      <trkpt lat="47.22458" lon="-2.17544">
        <ele>1.1</ele>
        <time>2020-06-05T13:13:09Z</time>
      </trkpt>
      <trkpt lat="47.22578" lon="-2.17654">
        <ele>0.62</ele>
        <time>2020-06-05T13:13:23Z</time>
      </trkpt>
      <trkpt lat="47.22703" lon="-2.17751">
        <ele>1.1</ele>
        <time>2020-06-05T13:13:36Z</time>
      </trkpt>
      <trkpt lat="47.22845" lon="-2.1784">
        <ele>2.06</ele>
        <time>2020-06-05T13:13:50Z</time>
      </trkpt>
      <trkpt lat="47.2292" lon="-2.17898">
        <ele>2.06</ele>
        <time>2020-06-05T13:13:58Z</time>
      </trkpt>
      <trkpt lat="47.22961" lon="-2.17942">
        <ele>2.06</ele>
        <time>2020-06-05T13:14:04Z</time>
      </trkpt>
      <trkpt lat="47.22941" lon="-2.17958">
        <ele>1.58</ele>
        <time>2020-06-05T13:14:08Z</time>
      </trkpt>
      <trkpt lat="47.22892" lon="-2.17914">
        <ele>1.1</ele>
        <time>2020-06-05T13:14:13Z</time>
      </trkpt>
      <trkpt lat="47.2286" lon="-2.17874">
        <ele>1.1</ele>
        <time>2020-06-05T13:14:16Z</time>
      </trkpt>
      <trkpt lat="47.22718" lon="-2.17768">
        <ele>0.62</ele>
        <time>2020-06-05T13:14:26Z</time>
      </trkpt>
      <trkpt lat="47.22573" lon="-2.17645">
        <ele>1.1</ele>
        <time>2020-06-05T13:14:36Z</time>
      </trkpt>
      <trkpt lat="47.22514" lon="-2.17605">
        <ele>1.1</ele>
        <time>2020-06-05T13:14:40Z</time>
      </trkpt>
      <trkpt lat="47.22474" lon="-2.17564">
        <ele>1.1</ele>
        <time>2020-06-05T13:14:43Z</time>
      </trkpt>
      <trkpt lat="47.22416" lon="-2.17522">
        <ele>1.1</ele>
        <time>2020-06-05T13:14:47Z</time>
      </trkpt>
      <trkpt lat="47.22326" lon="-2.17456">
        <ele>0.62</ele>
        <time>2020-06-05T13:14:53Z</time>
      </trkpt>
      <trkpt lat="47.22262" lon="-2.17426">
        <ele>0.62</ele>
        <time>2020-06-05T13:14:57Z</time>
      </trkpt>
      <trkpt lat="47.22214" lon="-2.17373">
        <ele>0.62</ele>
        <time>2020-06-05T13:15:01Z</time>
      </trkpt>
      <trkpt lat="47.22176" lon="-2.17341">
        <ele>0.14</ele>
        <time>2020-06-05T13:15:05Z</time>
      </trkpt>
      <trkpt lat="47.22155" lon="-2.17321">
        <ele>0.14</ele>
        <time>2020-06-05T13:15:09Z</time>
      </trkpt>
      <trkpt lat="47.22163" lon="-2.17334">
        <ele>0.14</ele>
        <time>2020-06-05T13:15:13Z</time>
      </trkpt>
      <trkpt lat="47.22173" lon="-2.17337">
        <ele>-0.34</ele>
        <time>2020-06-05T13:15:15Z</time>
      </trkpt>
      <trkpt lat="47.22227" lon="-2.17376">
        <ele>-0.34</ele>
        <time>2020-06-05T13:15:23Z</time>
      </trkpt>
      <trkpt lat="47.22323" lon="-2.17438">
        <ele>0.62</ele>
        <time>2020-06-05T13:15:34Z</time>
      </trkpt>
      <trkpt lat="47.22435" lon="-2.17515">
        <ele>1.1</ele>
        <time>2020-06-05T13:15:46Z</time>
      </trkpt>
      <trkpt lat="47.22537" lon="-2.17586">
        <ele>1.58</ele>
        <time>2020-06-05T13:15:57Z</time>
      </trkpt>
      <trkpt lat="47.22593" lon="-2.17629">
        <ele>1.58</ele>
        <time>2020-06-05T13:16:03Z</time>
      </trkpt>
      <trkpt lat="47.22694" lon="-2.17718">
        <ele>2.54</ele>
        <time>2020-06-05T13:16:14Z</time>
      </trkpt>
      <trkpt lat="47.22813" lon="-2.17812">
        <ele>2.54</ele>
        <time>2020-06-05T13:16:27Z</time>
      </trkpt>
      <trkpt lat="47.22911" lon="-2.17887">
        <ele>2.54</ele>
        <time>2020-06-05T13:16:39Z</time>
      </trkpt>
      <trkpt lat="47.22926" lon="-2.17895">
        <ele>2.54</ele>
        <time>2020-06-05T13:16:41Z</time>
      </trkpt>
      <trkpt lat="47.22968" lon="-2.17928">
        <ele>2.54</ele>
        <time>2020-06-05T13:16:47Z</time>
      </trkpt>
      <trkpt lat="47.22965" lon="-2.17954">
        <ele>3.02</ele>
        <time>2020-06-05T13:16:52Z</time>
      </trkpt>
      <trkpt lat="47.22959" lon="-2.17949">
        <ele>3.02</ele>
        <time>2020-06-05T13:16:53Z</time>
      </trkpt>
      <trkpt lat="47.22939" lon="-2.17937">
        <ele>2.54</ele>
        <time>2020-06-05T13:16:56Z</time>
      </trkpt>
      <trkpt lat="47.22907" lon="-2.17905">
        <ele>2.54</ele>
        <time>2020-06-05T13:17:00Z</time>
      </trkpt>
      <trkpt lat="47.22868" lon="-2.17873">
        <ele>2.54</ele>
        <time>2020-06-05T13:17:04Z</time>
      </trkpt>
      <trkpt lat="47.22731" lon="-2.17763">
        <ele>2.06</ele>
        <time>2020-06-05T13:17:15Z</time>
      </trkpt>
      <trkpt lat="47.22564" lon="-2.17628">
        <ele>1.58</ele>
        <time>2020-06-05T13:17:27Z</time>
      </trkpt>
      <trkpt lat="47.22427" lon="-2.17526">
        <ele>2.06</ele>
        <time>2020-06-05T13:17:36Z</time>
      </trkpt>
      <trkpt lat="47.22397" lon="-2.17508">
        <ele>2.06</ele>
        <time>2020-06-05T13:17:38Z</time>
      </trkpt>
      <trkpt lat="47.2222" lon="-2.17381">
        <ele>2.54</ele>
        <time>2020-06-05T13:17:50Z</time>
      </trkpt>
      <trkpt lat="47.22076" lon="-2.1724">
        <ele>2.06</ele>
        <time>2020-06-05T13:18:00Z</time>
      </trkpt>
      <trkpt lat="47.22061" lon="-2.17226">
        <ele>2.06</ele>
        <time>2020-06-05T13:18:01Z</time>
      </trkpt>
      <trkpt lat="47.22013" lon="-2.17198">
        <ele>1.58</ele>
        <time>2020-06-05T13:18:04Z</time>
      </trkpt>
      <trkpt lat="47.21971" lon="-2.17134">
        <ele>1.58</ele>
        <time>2020-06-05T13:18:08Z</time>
      </trkpt>
      <trkpt lat="47.2194" lon="-2.17121">
        <ele>1.58</ele>
        <time>2020-06-05T13:18:11Z</time>
      </trkpt>
      <trkpt lat="47.21919" lon="-2.17093">
        <ele>1.1</ele>
        <time>2020-06-05T13:18:14Z</time>
      </trkpt>
      <trkpt lat="47.21922" lon="-2.17072">
        <ele>0.14</ele>
        <time>2020-06-05T13:18:17Z</time>
      </trkpt>
      <trkpt lat="47.21946" lon="-2.17098">
        <ele>-1.3</ele>
        <time>2020-06-05T13:18:22Z</time>
      </trkpt>
      <trkpt lat="47.22022" lon="-2.17178">
        <ele>-1.3</ele>
        <time>2020-06-05T13:18:36Z</time>
      </trkpt>
      <trkpt lat="47.22115" lon="-2.17272">
        <ele>-0.82</ele>
        <time>2020-06-05T13:18:50Z</time>
      </trkpt>
      <trkpt lat="47.22211" lon="-2.17356">
        <ele>0.14</ele>
        <time>2020-06-05T13:19:03Z</time>
      </trkpt>
      <trkpt lat="47.22318" lon="-2.17443">
        <ele>0.14</ele>
        <time>2020-06-05T13:19:15Z</time>
      </trkpt>
      <trkpt lat="47.22438" lon="-2.17524">
        <ele>0.14</ele>
        <time>2020-06-05T13:19:27Z</time>
      </trkpt>
      <trkpt lat="47.22586" lon="-2.17631">
        <ele>1.1</ele>
        <time>2020-06-05T13:19:42Z</time>
      </trkpt>
      <trkpt lat="47.22704" lon="-2.1773">
        <ele>1.1</ele>
        <time>2020-06-05T13:19:56Z</time>
      </trkpt>
      <trkpt lat="47.22825" lon="-2.1782">
        <ele>1.58</ele>
        <time>2020-06-05T13:20:09Z</time>
      </trkpt>
      <trkpt lat="47.22939" lon="-2.17917">
        <ele>1.58</ele>
        <time>2020-06-05T13:20:22Z</time>
      </trkpt>
      <trkpt lat="47.22997" lon="-2.17963">
        <ele>1.1</ele>
        <time>2020-06-05T13:20:31Z</time>
      </trkpt>
      <trkpt lat="47.23064" lon="-2.17999">
        <ele>1.1</ele>
        <time>2020-06-05T13:20:42Z</time>
      </trkpt>
      <trkpt lat="47.23084" lon="-2.18008">
        <ele>1.1</ele>
        <time>2020-06-05T13:20:46Z</time>
      </trkpt>
      <trkpt lat="47.23125" lon="-2.18032">
        <ele>1.58</ele>
        <time>2020-06-05T13:20:57Z</time>
      </trkpt>
      <trkpt lat="47.23147" lon="-2.18026">
        <ele>2.06</ele>
        <time>2020-06-05T13:21:04Z</time>
      </trkpt>
      <trkpt lat="47.23147" lon="-2.18025">
        <ele>1.58</ele>
        <time>2020-06-05T13:21:11Z</time>
      </trkpt>
    </trkseg>
  </trk>
</gpx>